Time;durP1;ratioP1;P1;durP2;ratioP2;P2;SDS_P1;SDS_P2;PMS_P1;PMS_P2;Temp;Humidity;BMP_temperature;BMP_pressure;BME280_temperature;BME280_humidity;BME280_pressure;Samples;Min_cycle;Max_cycle;Signal;HPM_P1;HPM_P2
2024/01/26 00:00:13;;;;;;;31.95;13.48;;;9.30;99.90;;;;;;6121197;23;20451;-91
2024/01/26 00:02:39;;;;;;;28.77;14.02;;;9.20;99.90;;;;;;6123184;23;20085;-90
2024/01/26 00:05:05;;;;;;;28.38;14.43;;;9.30;99.90;;;;;;6096681;23;20022;-91
2024/01/26 00:07:31;;;;;;;24.83;12.77;;;9.30;99.90;;;;;;6122395;23;20013;-90
2024/01/26 00:09:56;;;;;;;22.83;12.15;;;9.30;99.90;;;;;;6122652;23;20013;-90
2024/01/26 00:12:22;;;;;;;28.75;13.13;;;9.30;99.90;;;;;;6121331;23;20010;-91
2024/01/26 00:14:48;;;;;;;29.20;12.07;;;9.30;99.90;;;;;;6120828;23;20022;-91
2024/01/26 00:17:13;;;;;;;26.58;11.18;;;9.30;99.90;;;;;;6121655;23;20784;-92
2024/01/26 00:19:39;;;;;;;25.45;12.20;;;9.40;99.90;;;;;;6121046;23;20010;-91
2024/01/26 00:22:05;;;;;;;27.27;13.55;;;9.40;99.90;;;;;;6123169;23;20018;-92
2024/01/26 00:24:30;;;;;;;27.95;13.35;;;9.40;99.90;;;;;;6121137;23;20037;-91
2024/01/26 00:26:56;;;;;;;27.88;13.75;;;9.40;99.90;;;;;;6122885;23;20340;-92
2024/01/26 00:29:22;;;;;;;23.23;11.63;;;9.40;99.90;;;;;;6095793;23;20014;-91
2024/01/26 00:31:47;;;;;;;24.48;12.90;;;9.40;99.90;;;;;;6120450;23;20037;-92
2024/01/26 00:34:13;;;;;;;26.85;13.52;;;9.40;99.90;;;;;;6120768;23;20010;-91
2024/01/26 00:36:38;;;;;;;23.52;11.93;;;9.40;99.90;;;;;;6121690;23;20025;-91
2024/01/26 00:39:05;;;;;;;25.40;12.48;;;9.40;99.90;;;;;;6120783;23;20452;-91
2024/01/26 00:41:32;;;;;;;27.02;11.98;;;9.40;99.90;;;;;;6122592;23;20010;-90
2024/01/26 00:43:58;;;;;;;27.95;13.38;;;9.40;99.90;;;;;;6095540;23;20022;-91
2024/01/26 00:46:24;;;;;;;28.73;13.85;;;9.40;99.90;;;;;;6121132;23;20014;-91
2024/01/26 00:48:49;;;;;;;22.98;11.05;;;9.50;99.90;;;;;;6120054;23;20010;-91
2024/01/26 00:51:15;;;;;;;27.40;13.65;;;9.50;99.90;;;;;;6121514;23;20009;-91
2024/01/26 00:53:41;;;;;;;27.90;13.70;;;9.50;99.90;;;;;;6120465;23;20037;-90
2024/01/26 00:56:07;;;;;;;23.92;11.48;;;9.50;99.90;;;;;;6120470;23;20022;-91
2024/01/26 00:58:32;;;;;;;21.92;10.30;;;9.50;99.90;;;;;;6095904;23;20356;-91
2024/01/26 01:00:58;;;;;;;23.08;11.70;;;9.50;99.90;;;;;;6120453;23;20076;-91
2024/01/26 01:03:23;;;;;;;26.58;12.95;;;9.60;99.90;;;;;;6095368;23;20022;-91
2024/01/26 01:05:50;;;;;;;28.17;13.75;;;9.60;99.90;;;;;;6120788;23;20080;-90
2024/01/26 01:08:15;;;;;;;29.27;14.77;;;9.60;99.90;;;;;;6120740;23;20009;-91
2024/01/26 01:10:41;;;;;;;30.63;16.08;;;9.60;99.90;;;;;;6120110;23;20036;-91
2024/01/26 01:13:10;;;;;;;27.67;13.13;;;9.60;99.90;;;;;;6119817;23;20077;-91
2024/01/26 01:15:39;;;;;;;26.73;13.38;;;9.60;99.90;;;;;;6095812;23;20018;-91
2024/01/26 01:18:05;;;;;;;22.27;12.48;;;9.70;99.90;;;;;;6096373;23;20017;-91
2024/01/26 01:20:31;;;;;;;21.17;10.93;;;9.70;99.90;;;;;;6122188;23;20025;-91
2024/01/26 01:22:58;;;;;;;28.25;14.27;;;9.70;99.90;;;;;;6120234;23;20020;-91
2024/01/26 01:25:25;;;;;;;23.67;11.68;;;9.70;99.90;;;;;;6096193;23;20021;-91
2024/01/26 01:27:51;;;;;;;23.83;11.50;;;9.70;99.90;;;;;;6120677;23;20396;-91
2024/01/26 01:30:16;;;;;;;28.80;14.90;;;9.70;99.90;;;;;;6121826;23;20024;-91
2024/01/26 01:32:42;;;;;;;26.27;11.68;;;9.70;99.90;;;;;;6120345;23;20010;-91
2024/01/26 01:35:08;;;;;;;22.35;12.10;;;9.70;99.90;;;;;;6120740;23;20080;-90
2024/01/26 01:37:34;;;;;;;26.98;13.70;;;9.80;99.90;;;;;;6096364;23;20352;-92
2024/01/26 01:39:59;;;;;;;31.13;14.73;;;9.80;99.90;;;;;;6119972;23;20402;-92
2024/01/26 01:42:25;;;;;;;30.20;14.90;;;9.80;99.90;;;;;;6121005;23;20018;-91
2024/01/26 01:44:51;;;;;;;29.13;14.40;;;9.80;99.90;;;;;;6096971;23;20073;-91
2024/01/26 01:47:16;;;;;;;27.10;13.82;;;9.80;99.90;;;;;;6122213;23;20336;-91
2024/01/26 01:49:44;;;;;;;22.98;11.38;;;9.80;99.90;;;;;;6096133;23;20105;-92
2024/01/26 01:52:13;;;;;;;25.73;13.20;;;9.80;99.90;;;;;;6095911;23;20017;-90
2024/01/26 01:54:40;;;;;;;23.05;13.05;;;9.80;99.90;;;;;;6095733;23;20018;-91
2024/01/26 01:57:06;;;;;;;24.80;12.70;;;9.80;99.90;;;;;;6121670;23;20095;-91
2024/01/26 01:59:33;;;;;;;23.10;11.75;;;9.80;99.90;;;;;;6120226;23;20092;-91
2024/01/26 02:01:59;;;;;;;26.35;11.93;;;9.90;99.90;;;;;;6096228;23;20053;-91
2024/01/26 02:04:25;;;;;;;23.20;12.23;;;9.90;99.90;;;;;;6095510;23;20120;-92
2024/01/26 02:06:59;;;;;;;19.70;9.90;;;9.90;99.90;;;;;;6096166;23;20183;-91
2024/01/26 02:09:26;;;;;;;23.88;11.52;;;9.90;99.90;;;;;;6095680;23;20088;-91
2024/01/26 02:11:52;;;;;;;25.83;13.15;;;9.90;99.90;;;;;;6120835;23;20014;-92
2024/01/26 02:14:18;;;;;;;24.60;12.25;;;9.90;99.90;;;;;;6118790;23;20452;-91
2024/01/26 02:16:53;;;;;;;21.90;11.77;;;9.90;99.90;;;;;;6118738;23;20062;-91
2024/01/26 02:19:20;;;;;;;24.40;12.20;;;9.90;99.90;;;;;;6094363;23;20073;-91
2024/01/26 02:21:45;;;;;;;24.17;13.73;;;9.90;99.90;;;;;;6118764;23;20021;-91
2024/01/26 02:24:13;;;;;;;24.70;12.30;;;9.90;99.90;;;;;;6119859;23;20014;-91
2024/01/26 02:26:39;;;;;;;22.38;11.68;;;9.90;99.90;;;;;;6121892;23;20093;-91
2024/01/26 02:29:04;;;;;;;20.88;10.13;;;10.00;99.90;;;;;;6095960;23;20042;-91
2024/01/26 02:31:30;;;;;;;24.33;12.60;;;10.00;99.90;;;;;;6120042;23;20014;-92
2024/01/26 02:33:55;;;;;;;22.70;11.75;;;10.00;99.90;;;;;;6120360;23;20020;-91
2024/01/26 02:36:21;;;;;;;21.35;11.40;;;10.00;99.90;;;;;;6095519;23;20014;-92
2024/01/26 02:38:47;;;;;;;18.55;10.23;;;10.00;99.90;;;;;;6120484;23;20053;-92
2024/01/26 02:41:13;;;;;;;24.00;11.75;;;10.00;99.90;;;;;;6120351;23;20049;-91
2024/01/26 02:43:39;;;;;;;20.15;10.77;;;10.00;99.90;;;;;;6121971;23;20013;-92
2024/01/26 02:46:11;;;;;;;22.58;10.57;;;10.00;99.90;;;;;;6120126;23;20080;-91
2024/01/26 02:48:37;;;;;;;21.08;11.05;;;10.10;99.90;;;;;;6120608;23;20006;-92
2024/01/26 02:51:03;;;;;;;20.58;11.02;;;10.00;99.90;;;;;;6095441;23;20089;-92
2024/01/26 02:53:29;;;;;;;24.98;12.35;;;10.10;99.90;;;;;;6095829;23;20325;-92
2024/01/26 02:55:55;;;;;;;22.60;11.95;;;10.00;99.90;;;;;;6095225;23;20526;-91
2024/01/26 02:58:21;;;;;;;22.42;10.48;;;10.10;99.90;;;;;;6120183;23;20018;-92
2024/01/26 03:00:46;;;;;;;19.17;9.85;;;10.10;99.90;;;;;;6119576;23;20040;-92
2024/01/26 03:03:13;;;;;;;19.30;10.75;;;10.10;99.90;;;;;;6121646;23;20018;-91
2024/01/26 03:05:39;;;;;;;18.02;9.18;;;10.10;99.90;;;;;;6119636;23;20364;-92
2024/01/26 03:08:05;;;;;;;21.90;11.48;;;10.10;99.90;;;;;;6119920;23;20020;-92
2024/01/26 03:10:31;;;;;;;21.63;10.95;;;10.10;99.90;;;;;;6120111;23;20010;-92
2024/01/26 03:12:57;;;;;;;19.55;9.68;;;10.10;99.90;;;;;;6119389;23;20333;-91
2024/01/26 03:15:22;;;;;;;21.67;11.75;;;10.20;99.90;;;;;;6096306;23;20014;-91
2024/01/26 03:17:48;;;;;;;21.08;10.20;;;10.10;99.90;;;;;;6121838;23;20021;-91
2024/01/26 03:20:14;;;;;;;20.85;11.32;;;10.10;99.90;;;;;;6121874;23;20512;-91
2024/01/26 03:22:40;;;;;;;20.33;10.32;;;10.10;99.90;;;;;;6122087;23;20097;-91
2024/01/26 03:25:06;;;;;;;19.10;10.13;;;10.20;99.90;;;;;;6123046;23;20022;-91
2024/01/26 03:27:31;;;;;;;19.77;11.27;;;10.20;99.90;;;;;;6121172;23;20010;-91
2024/01/26 03:29:57;;;;;;;21.95;10.88;;;10.10;99.90;;;;;;6097384;23;20037;-92
2024/01/26 03:32:23;;;;;;;20.35;10.57;;;10.20;99.90;;;;;;6122553;23;20065;-91
2024/01/26 03:34:49;;;;;;;24.05;12.02;;;10.10;99.90;;;;;;6121393;23;20029;-91
2024/01/26 03:37:15;;;;;;;19.33;9.75;;;10.10;99.90;;;;;;6098039;23;20018;-91
2024/01/26 03:39:40;;;;;;;18.98;9.65;;;10.20;99.90;;;;;;6096775;23;20116;-91
2024/01/26 03:42:10;;;;;;;18.42;10.80;;;10.20;99.90;;;;;;6120967;23;20018;-92
2024/01/26 03:44:36;;;;;;;19.90;10.77;;;10.20;99.90;;;;;;6096968;23;20456;-91
2024/01/26 03:47:02;;;;;;;19.20;10.13;;;10.20;99.90;;;;;;6122086;23;20010;-91
2024/01/26 03:49:28;;;;;;;22.17;11.40;;;10.20;99.90;;;;;;6121047;23;20084;-91
2024/01/26 03:51:53;;;;;;;23.08;12.93;;;10.20;99.90;;;;;;6096725;23;20013;-92
2024/01/26 03:54:19;;;;;;;22.02;12.00;;;10.20;99.90;;;;;;6097619;23;20014;-92
2024/01/26 03:56:45;;;;;;;20.35;11.13;;;10.20;99.90;;;;;;6097325;23;20037;-91
2024/01/26 03:59:10;;;;;;;19.77;10.40;;;10.20;99.90;;;;;;6097642;23;20077;-91
2024/01/26 04:01:36;;;;;;;20.40;11.45;;;10.20;99.90;;;;;;6121536;23;20112;-91
2024/01/26 04:04:02;;;;;;;22.02;10.77;;;10.20;99.90;;;;;;6120986;23;20018;-91
2024/01/26 04:06:27;;;;;;;18.33;9.35;;;10.20;99.90;;;;;;6121204;23;20521;-91
2024/01/26 04:08:54;;;;;;;17.40;9.50;;;10.20;99.90;;;;;;6121210;23;20101;-91
2024/01/26 04:11:20;;;;;;;19.27;9.93;;;10.20;99.90;;;;;;6096819;23;20013;-91
2024/01/26 04:13:46;;;;;;;14.70;8.25;;;10.20;99.90;;;;;;6121262;23;20021;-91
2024/01/26 04:16:11;;;;;;;19.52;10.45;;;10.20;99.90;;;;;;6097011;23;20014;-92
2024/01/26 04:18:37;;;;;;;19.13;8.65;;;10.20;99.90;;;;;;6121439;23;20040;-91
2024/01/26 04:21:03;;;;;;;19.55;10.77;;;10.20;99.90;;;;;;6120585;23;20024;-91
2024/01/26 04:23:29;;;;;;;16.45;8.27;;;10.30;99.90;;;;;;6096980;23;20032;-91
2024/01/26 04:25:54;;;;;;;17.83;9.32;;;10.20;99.90;;;;;;6122988;23;20049;-91
2024/01/26 04:28:20;;;;;;;16.02;8.40;;;10.20;99.90;;;;;;6120733;23;20035;-90
2024/01/26 04:30:46;;;;;;;22.65;9.43;;;10.30;99.90;;;;;;6096502;23;20021;-91
2024/01/26 04:33:11;;;;;;;17.25;8.88;;;10.30;99.90;;;;;;6096201;23;20016;-91
2024/01/26 04:35:37;;;;;;;16.13;8.70;;;10.30;99.90;;;;;;6121051;23;20010;-91
2024/01/26 04:38:05;;;;;;;15.60;8.15;;;10.30;99.90;;;;;;6096921;23;20065;-92
2024/01/26 04:40:31;;;;;;;13.48;7.53;;;10.30;99.90;;;;;;6121216;23;20042;-91
2024/01/26 04:42:57;;;;;;;17.45;10.10;;;10.30;99.90;;;;;;6121264;23;20018;-92
2024/01/26 04:45:22;;;;;;;18.55;9.75;;;10.40;99.90;;;;;;6119790;23;20018;-91
2024/01/26 04:47:48;;;;;;;19.58;9.65;;;10.30;99.90;;;;;;6120261;23;20017;-91
2024/01/26 04:50:13;;;;;;;19.58;10.05;;;10.30;99.90;;;;;;6120698;23;20021;-91
2024/01/26 04:52:39;;;;;;;21.33;10.43;;;10.40;99.90;;;;;;6120833;23;20010;-92
2024/01/26 04:55:05;;;;;;;22.02;9.95;;;10.40;99.90;;;;;;6096214;23;20407;-92
2024/01/26 04:57:31;;;;;;;17.73;5.60;;;10.40;99.90;;;;;;6096244;23;20014;-91
2024/01/26 04:59:56;;;;;;;19.25;10.23;;;10.40;99.90;;;;;;6122103;23;20352;-91
2024/01/26 05:02:22;;;;;;;20.38;10.40;;;10.40;99.90;;;;;;6120410;23;20018;-91
2024/01/26 05:04:48;;;;;;;15.35;8.82;;;10.50;99.90;;;;;;6120097;23;20030;-91
2024/01/26 05:07:15;;;;;;;16.63;8.52;;;10.50;99.90;;;;;;6096657;23;20141;-91
2024/01/26 05:09:40;;;;;;;14.02;6.13;;;10.50;99.90;;;;;;6120409;23;20456;-91
2024/01/26 05:12:06;;;;;;;15.57;8.10;;;10.50;99.90;;;;;;6095970;23;20069;-91
2024/01/26 05:14:35;;;;;;;15.55;8.73;;;10.50;99.90;;;;;;6120983;23;20017;-91
2024/01/26 05:17:02;;;;;;;13.63;7.13;;;10.60;99.90;;;;;;6120789;23;20013;-91
2024/01/26 05:19:27;;;;;;;15.13;6.75;;;10.60;99.90;;;;;;6096341;23;20013;-90
2024/01/26 05:21:53;;;;;;;18.35;10.23;;;10.60;99.90;;;;;;6095902;23;20367;-91
2024/01/26 05:24:18;;;;;;;14.75;7.53;;;10.60;99.90;;;;;;6096233;23;20021;-91
2024/01/26 05:26:45;;;;;;;14.30;7.40;;;10.60;99.90;;;;;;6120914;23;20029;-91
2024/01/26 05:29:10;;;;;;;11.43;5.13;;;10.60;99.90;;;;;;6120354;23;20016;-91
2024/01/26 05:31:39;;;;;;;17.58;8.55;;;10.60;99.90;;;;;;6096100;23;20009;-91
2024/01/26 05:34:05;;;;;;;15.27;8.18;;;10.70;99.90;;;;;;6095795;23;20018;-91
2024/01/26 05:36:31;;;;;;;12.32;6.43;;;10.70;99.90;;;;;;6096292;23;20025;-91
2024/01/26 05:38:56;;;;;;;13.00;7.05;;;10.70;99.90;;;;;;6120370;23;20013;-91
2024/01/26 05:41:22;;;;;;;13.85;7.20;;;10.70;99.90;;;;;;6095942;23;20016;-91
2024/01/26 05:43:48;;;;;;;11.65;6.30;;;10.70;99.90;;;;;;6095799;23;20009;-91
2024/01/26 05:46:14;;;;;;;14.55;7.45;;;10.80;99.90;;;;;;6120390;23;20014;-90
2024/01/26 05:48:44;;;;;;;16.15;7.38;;;10.80;99.90;;;;;;6095377;23;20085;-91
2024/01/26 05:51:10;;;;;;;16.15;7.50;;;10.80;99.90;;;;;;6096082;23;20045;-91
2024/01/26 05:53:36;;;;;;;16.02;8.98;;;10.80;99.90;;;;;;6095290;23;20010;-91
2024/01/26 05:56:02;;;;;;;14.10;8.43;;;10.80;99.90;;;;;;6121686;23;20017;-92
2024/01/26 05:58:27;;;;;;;18.15;9.18;;;10.80;99.90;;;;;;6120315;23;20097;-90
2024/01/26 06:00:53;;;;;;;14.07;8.02;;;10.80;99.90;;;;;;6120462;23;20466;-91
2024/01/26 06:03:19;;;;;;;15.30;7.93;;;10.80;99.90;;;;;;6095686;23;20141;-91
2024/01/26 06:05:44;;;;;;;16.23;8.65;;;10.90;99.90;;;;;;6095534;23;20014;-91
2024/01/26 06:08:10;;;;;;;14.18;7.47;;;10.90;99.90;;;;;;6121939;23;20451;-91
2024/01/26 06:10:36;;;;;;;14.85;7.80;;;10.90;99.90;;;;;;6122003;23;20041;-91
2024/01/26 06:13:01;;;;;;;17.48;8.07;;;10.90;99.90;;;;;;6121388;23;20442;-92
2024/01/26 06:15:27;;;;;;;14.77;6.90;;;10.80;99.90;;;;;;6120388;23;20017;-92
2024/01/26 06:17:53;;;;;;;14.60;6.85;;;10.90;99.90;;;;;;6095940;23;20097;-92
2024/01/26 06:20:18;;;;;;;13.40;6.63;;;10.90;99.90;;;;;;6123362;23;20463;-91
2024/01/26 06:22:44;;;;;;;12.95;6.35;;;10.90;99.90;;;;;;6120342;23;20089;-91
2024/01/26 06:25:09;;;;;;;13.27;6.32;;;10.90;99.90;;;;;;6095157;23;20015;-92
2024/01/26 06:27:35;;;;;;;14.65;6.28;;;10.90;99.90;;;;;;6121865;23;20034;-91
2024/01/26 06:30:01;;;;;;;14.63;6.80;;;10.90;99.90;;;;;;6095620;23;20021;-92
2024/01/26 06:32:26;;;;;;;15.90;7.55;;;10.90;99.90;;;;;;6120042;23;20044;-92
2024/01/26 06:34:52;;;;;;;14.88;6.85;;;10.90;99.90;;;;;;6120283;23;20018;-92
2024/01/26 06:37:18;;;;;;;9.35;4.43;;;10.90;99.90;;;;;;6120492;23;20360;-92
2024/01/26 06:39:43;;;;;;;12.85;6.65;;;10.90;99.90;;;;;;6122165;23;20038;-92
2024/01/26 06:42:09;;;;;;;15.05;6.53;;;10.90;99.90;;;;;;6121572;23;20569;-91
2024/01/26 06:44:34;;;;;;;12.88;5.85;;;10.90;99.90;;;;;;6095416;23;20025;-92
2024/01/26 06:47:00;;;;;;;9.80;4.18;;;10.90;99.90;;;;;;6120355;23;20645;-93
2024/01/26 06:49:26;;;;;;;12.38;6.50;;;10.90;99.90;;;;;;6096450;23;20013;-92
2024/01/26 06:51:52;;;;;;;11.98;6.30;;;10.90;99.90;;;;;;6124249;23;20017;-93
2024/01/26 06:54:18;;;;;;;9.30;4.95;;;10.90;99.90;;;;;;6097390;23;20017;-93
2024/01/26 06:56:44;;;;;;;9.65;5.20;;;10.90;99.90;;;;;;6124043;23;20348;-93
2024/01/26 06:59:09;;;;;;;11.18;4.15;;;10.90;99.90;;;;;;6098518;23;20022;-93
2024/01/26 07:01:35;;;;;;;12.73;6.22;;;10.90;99.90;;;;;;6122345;23;20476;-93
2024/01/26 07:04:01;;;;;;;10.27;5.03;;;10.90;99.90;;;;;;6122950;23;20014;-93
2024/01/26 07:06:26;;;;;;;9.88;4.78;;;10.90;99.90;;;;;;6122466;23;20010;-92
2024/01/26 07:08:52;;;;;;;11.25;5.43;;;10.80;99.90;;;;;;6122532;23;20021;-93
2024/01/26 07:11:20;;;;;;;13.85;5.65;;;10.80;99.90;;;;;;6122933;23;20013;-92
2024/01/26 07:13:46;;;;;;;11.27;4.82;;;10.80;99.90;;;;;;6122256;23;20076;-94
2024/01/26 07:16:11;;;;;;;10.18;4.32;;;10.80;99.90;;;;;;6097360;23;20484;-90
2024/01/26 07:18:37;;;;;;;9.00;4.07;;;10.80;99.90;;;;;;6146180;23;20014;-90
2024/01/26 07:21:08;;;;;;;8.75;4.00;;;10.80;99.90;;;;;;6124056;23;20049;-93
2024/01/26 07:23:34;;;;;;;9.32;3.67;;;10.80;99.90;;;;;;6098035;23;20014;-93
2024/01/26 07:26:00;;;;;;;9.45;4.88;;;10.80;99.90;;;;;;6124385;23;20073;-94
2024/01/26 07:28:27;;;;;;;9.02;4.93;;;10.80;99.90;;;;;;6123264;23;20014;-94
2024/01/26 07:30:53;;;;;;;8.40;4.15;;;10.80;99.90;;;;;;6098422;23;20017;-94
2024/01/26 07:33:18;;;;;;;10.05;5.15;;;10.80;99.90;;;;;;6122342;23;20010;-94
2024/01/26 07:35:44;;;;;;;8.15;3.97;;;10.90;99.90;;;;;;6098390;23;20018;-94
2024/01/26 07:38:10;;;;;;;9.60;4.43;;;10.80;99.90;;;;;;6098175;23;20088;-94
2024/01/26 07:40:36;;;;;;;9.63;4.35;;;10.90;99.90;;;;;;6121838;23;20101;-93
2024/01/26 07:43:01;;;;;;;8.40;3.80;;;10.80;99.90;;;;;;6098059;23;20021;-94
2024/01/26 07:45:27;;;;;;;9.52;4.55;;;10.80;99.90;;;;;;6122189;23;20025;-94
2024/01/26 07:47:55;;;;;;;9.93;4.45;;;10.80;99.90;;;;;;6123250;23;20506;-94
2024/01/26 07:50:21;;;;;;;8.55;4.28;;;10.90;99.90;;;;;;6124165;23;20020;-93
2024/01/26 07:52:47;;;;;;;8.05;3.72;;;10.80;99.90;;;;;;6122240;23;20014;-94
2024/01/26 07:55:12;;;;;;;7.43;3.30;;;10.80;99.90;;;;;;6097955;23;20089;-95
2024/01/26 07:57:38;;;;;;;6.85;3.50;;;10.80;99.90;;;;;;6098365;23;20136;-93
2024/01/26 08:00:08;;;;;;;8.40;3.60;;;10.80;99.90;;;;;;6121249;23;20076;-93
2024/01/26 08:02:35;;;;;;;9.80;4.10;;;10.90;99.90;;;;;;6121622;23;20057;-93
2024/01/26 08:05:00;;;;;;;7.35;3.38;;;10.90;99.90;;;;;;6121891;23;20018;-93
2024/01/26 08:07:26;;;;;;;8.43;3.92;;;10.90;99.90;;;;;;6124276;23;20012;-93
2024/01/26 08:09:52;;;;;;;8.65;3.58;;;10.90;99.90;;;;;;6121595;23;20029;-93
2024/01/26 08:12:19;;;;;;;5.80;3.13;;;10.90;99.90;;;;;;6097612;23;20085;-93
2024/01/26 08:14:45;;;;;;;5.65;2.55;;;10.90;99.90;;;;;;6097547;23;20056;-93
2024/01/26 08:17:10;;;;;;;7.20;3.00;;;10.90;99.90;;;;;;6122309;23;20403;-93
2024/01/26 08:19:36;;;;;;;6.93;3.15;;;10.90;99.90;;;;;;6122607;23;20016;-93
2024/01/26 08:22:03;;;;;;;6.75;2.80;;;10.90;99.90;;;;;;6121796;23;20010;-93
2024/01/26 08:24:29;;;;;;;6.97;2.95;;;10.90;99.90;;;;;;6122156;23;20018;-93
2024/01/26 08:26:55;;;;;;;5.50;2.33;;;11.00;99.90;;;;;;6121921;23;20448;-94
2024/01/26 08:29:24;;;;;;;5.10;2.42;;;10.90;99.90;;;;;;6097415;23;20014;-93
2024/01/26 08:31:50;;;;;;;6.50;2.95;;;10.90;99.90;;;;;;6122225;23;20154;-93
2024/01/26 08:34:16;;;;;;;6.55;2.78;;;11.00;99.90;;;;;;6121477;23;20705;-93
2024/01/26 08:36:42;;;;;;;5.60;2.72;;;11.00;99.90;;;;;;6123944;23;20025;-94
2024/01/26 08:39:11;;;;;;;5.97;2.33;;;11.00;99.90;;;;;;6097876;23;20037;-94
2024/01/26 08:41:37;;;;;;;6.35;2.65;;;11.10;99.90;;;;;;6122471;23;20093;-94
2024/01/26 08:44:03;;;;;;;6.05;2.13;;;11.10;99.90;;;;;;6097799;23;20009;-95
2024/01/26 08:46:29;;;;;;;4.57;2.15;;;11.10;99.90;;;;;;6121770;23;20161;-93
2024/01/26 08:48:55;;;;;;;4.35;1.83;;;11.10;99.90;;;;;;6123641;23;20017;-95
2024/01/26 08:51:22;;;;;;;5.38;1.98;;;11.10;99.90;;;;;;6122015;23;20006;-92
2024/01/26 08:53:47;;;;;;;6.10;2.55;;;11.10;99.90;;;;;;6096606;23;20010;-90
2024/01/26 08:56:14;;;;;;;7.03;2.78;;;11.10;99.90;;;;;;6124998;23;20014;-93
2024/01/26 08:58:41;;;;;;;4.43;1.63;;;11.20;99.90;;;;;;6130404;23;20018;-93
2024/01/26 09:01:07;;;;;;;3.33;1.42;;;11.10;99.90;;;;;;6098064;23;20018;-92
2024/01/26 09:03:33;;;;;;;7.60;2.55;;;11.10;99.90;;;;;;6121507;23;20018;-93
2024/01/26 09:05:59;;;;;;;5.90;2.30;;;11.10;99.90;;;;;;6096982;23;20034;-94
2024/01/26 09:08:25;;;;;;;7.05;2.92;;;11.20;99.90;;;;;;6121797;23;20436;-93
2024/01/26 09:10:50;;;;;;;5.70;2.30;;;11.20;99.90;;;;;;6122680;23;20017;-92
2024/01/26 09:13:16;;;;;;;7.28;3.35;;;11.20;99.90;;;;;;6120422;23;20006;-92
2024/01/26 09:15:42;;;;;;;5.68;2.20;;;11.30;99.90;;;;;;6096160;23;20060;-92
2024/01/26 09:18:08;;;;;;;7.13;3.47;;;11.20;99.90;;;;;;6121784;23;20014;-91
2024/01/26 09:20:34;;;;;;;7.32;3.47;;;11.30;99.90;;;;;;6096669;23;20041;-92
2024/01/26 09:23:00;;;;;;;7.22;3.53;;;11.30;99.90;;;;;;6121172;23;20022;-93
2024/01/26 09:25:25;;;;;;;6.65;2.50;;;11.30;99.90;;;;;;6096279;23;20110;-91
2024/01/26 09:27:51;;;;;;;4.78;2.50;;;11.30;99.90;;;;;;6096680;23;20014;-93
2024/01/26 09:30:17;;;;;;;4.03;2.30;;;11.30;99.90;;;;;;6121220;23;20013;-92
2024/01/26 09:32:43;;;;;;;6.55;3.17;;;11.40;99.90;;;;;;6121063;23;20090;-92
2024/01/26 09:35:09;;;;;;;4.53;2.20;;;11.40;99.90;;;;;;6144711;23;20053;-91
2024/01/26 09:37:36;;;;;;;4.43;1.85;;;11.40;99.90;;;;;;6096712;23;20640;-92
2024/01/26 09:40:02;;;;;;;5.85;2.15;;;11.40;99.90;;;;;;6096477;23;20093;-92
2024/01/26 09:42:28;;;;;;;4.75;1.98;;;11.40;99.90;;;;;;6145611;23;20099;-92
2024/01/26 09:44:55;;;;;;;3.25;1.30;;;11.50;99.90;;;;;;6120234;23;20025;-92
2024/01/26 09:47:23;;;;;;;2.08;0.75;;;11.50;99.90;;;;;;6121672;23;20013;-90
2024/01/26 09:49:55;;;;;;;0.40;0.40;;;11.00;99.90;;;;;;6121966;23;20016;-90
2024/01/26 09:52:22;;;;;;;2.50;0.90;;;10.70;99.90;;;;;;6120773;23;20099;-91
2024/01/26 09:54:49;;;;;;;0.85;0.30;;;10.50;99.90;;;;;;6119219;23;20030;-91
2024/01/26 09:57:16;;;;;;;1.48;0.30;;;10.20;99.90;;;;;;6096505;23;20014;-91
2024/01/26 09:59:42;;;;;;;1.67;0.70;;;10.10;99.90;;;;;;6120238;23;20025;-91
2024/01/26 10:02:10;;;;;;;3.10;0.32;;;10.00;99.90;;;;;;6095734;23;20017;-91
2024/01/26 10:04:36;;;;;;;0.52;0.20;;;9.90;99.90;;;;;;6120173;23;20025;-91
2024/01/26 10:07:02;;;;;;;1.38;0.28;;;9.90;99.90;;;;;;6120453;23;20006;-90
2024/01/26 10:09:29;;;;;;;1.60;0.30;;;9.80;99.90;;;;;;6095637;23;20069;-91
2024/01/26 10:11:54;;;;;;;5.78;0.50;;;9.80;99.90;;;;;;6120269;23;20014;-91
2024/01/26 10:14:23;;;;;;;3.15;0.55;;;9.80;99.90;;;;;;6120170;23;20068;-91
2024/01/26 10:16:59;;;;;;;2.30;0.52;;;9.70;99.90;;;;;;6121528;23;20013;-91
2024/01/26 10:19:26;;;;;;;1.73;0.30;;;9.60;99.90;;;;;;6095794;23;20014;-92
2024/01/26 10:21:53;;;;;;;0.85;0.32;;;9.60;99.90;;;;;;6095670;23;20100;-91
2024/01/26 10:24:23;;;;;;;2.63;0.45;;;9.50;99.90;;;;;;6121793;23;20486;-90
2024/01/26 10:26:53;;;;;;;2.20;0.43;;;9.50;99.90;;;;;;6097146;23;20024;-91
2024/01/26 10:29:20;;;;;;;2.78;0.43;;;9.40;99.90;;;;;;6122413;23;20526;-91
2024/01/26 10:31:47;;;;;;;3.30;0.63;;;9.40;99.90;;;;;;6122185;23;20014;-90
2024/01/26 10:34:14;;;;;;;3.88;0.82;;;9.40;99.90;;;;;;6124158;23;20376;-91
2024/01/26 10:36:48;;;;;;;0.52;0.15;;;9.40;99.90;;;;;;6123764;23;20092;-90
2024/01/26 10:39:20;;;;;;;5.43;0.82;;;9.40;99.90;;;;;;6124270;23;20014;-89
2024/01/26 10:41:48;;;;;;;6.18;1.02;;;9.30;99.90;;;;;;6122029;23;20026;-91
2024/01/26 10:44:16;;;;;;;4.47;0.85;;;9.30;99.90;;;;;;6123600;23;20412;-90
2024/01/26 10:46:42;;;;;;;7.45;1.25;;;9.30;99.90;;;;;;6097142;23;20022;-90
2024/01/26 10:49:11;;;;;;;9.00;0.98;;;9.30;99.90;;;;;;6121993;23;20486;-90
2024/01/26 10:51:37;;;;;;;8.30;2.42;;;9.30;99.90;;;;;;6097524;23;20018;-91
2024/01/26 10:54:10;;;;;;;7.05;1.00;;;9.20;99.90;;;;;;6121233;23;20081;-90
2024/01/26 10:56:40;;;;;;;7.65;1.15;;;9.20;99.90;;;;;;6097370;23;20018;-92
2024/01/26 10:59:10;;;;;;;5.47;1.02;;;9.20;99.90;;;;;;6122014;23;20010;-92
2024/01/26 11:01:39;;;;;;;5.22;0.93;;;9.20;99.90;;;;;;6121843;23;20010;-91
2024/01/26 11:04:08;;;;;;;4.45;0.93;;;9.20;99.90;;;;;;6121005;23;20013;-89
2024/01/26 11:06:35;;;;;;;2.67;0.80;;;9.20;99.90;;;;;;6120769;23;20014;-92
2024/01/26 11:09:05;;;;;;;12.80;2.60;;;9.20;99.90;;;;;;6096665;23;20065;-89
2024/01/26 11:11:38;;;;;;;6.63;1.58;;;9.20;99.90;;;;;;6121379;23;20014;-91
2024/01/26 11:14:05;;;;;;;10.38;1.83;;;9.20;99.90;;;;;;6096890;23;20625;-90
2024/01/26 11:16:38;;;;;;;14.40;2.42;;;9.10;99.90;;;;;;6121179;23;20048;-92
2024/01/26 11:19:03;;;;;;;8.63;1.08;;;9.10;99.90;;;;;;6121113;23;20021;-91
2024/01/26 11:21:39;;;;;;;8.70;1.35;;;9.10;99.90;;;;;;6121587;23;20021;-91
2024/01/26 11:24:18;;;;;;;8.90;1.70;;;9.10;99.90;;;;;;6123203;23;20014;-90
2024/01/26 11:27:01;;;;;;;11.32;2.80;;;9.10;99.90;;;;;;6120873;23;20018;-90
2024/01/26 11:29:32;;;;;;;4.18;0.75;;;9.10;99.90;;;;;;6097131;23;20033;-90
2024/01/26 11:31:58;;;;;;;6.22;1.45;;;9.00;99.90;;;;;;6123844;23;20010;-90
2024/01/26 11:34:24;;;;;;;6.32;1.17;;;9.00;99.90;;;;;;6122567;23;20060;-91
2024/01/26 11:37:08;;;;;;;5.55;1.30;;;8.90;99.90;;;;;;6099919;23;20029;-90
2024/01/26 11:39:35;;;;;;;8.88;1.40;;;8.90;99.90;;;;;;6100763;23;20073;-90
2024/01/26 11:42:01;;;;;;;11.27;1.60;;;8.90;99.90;;;;;;6097034;23;20022;-90
2024/01/26 11:44:30;;;;;;;4.32;1.20;;;8.90;99.90;;;;;;6096946;23;20020;-90
2024/01/26 11:46:57;;;;;;;2.95;0.75;;;8.80;99.90;;;;;;6096510;23;20084;-90
2024/01/26 11:49:23;;;;;;;6.22;1.27;;;8.80;99.90;;;;;;6123251;23;20021;-91
2024/01/26 11:51:48;;;;;;;10.63;1.98;;;8.80;99.90;;;;;;6122622;23;20009;-90
2024/01/26 11:54:15;;;;;;;11.43;2.05;;;8.80;99.90;;;;;;6120866;23;20013;-89
2024/01/26 11:56:41;;;;;;;7.40;1.77;;;8.70;99.90;;;;;;6121285;23;20054;-90
2024/01/26 11:59:08;;;;;;;2.92;0.82;;;8.70;99.90;;;;;;6096493;23;20013;-89
2024/01/26 12:01:34;;;;;;;4.68;1.00;;;8.70;99.90;;;;;;6121129;23;20049;-89
2024/01/26 12:04:00;;;;;;;6.75;1.30;;;8.70;99.90;;;;;;6096339;23;20017;-90
2024/01/26 12:06:26;;;;;;;8.10;1.35;;;8.70;99.90;;;;;;6122605;23;20014;-90
2024/01/26 12:08:52;;;;;;;7.85;1.30;;;8.70;99.90;;;;;;6123140;23;20094;-90
2024/01/26 12:11:18;;;;;;;8.88;1.90;;;8.70;99.90;;;;;;6120928;23;20021;-90
2024/01/26 12:13:44;;;;;;;10.82;1.92;;;8.70;99.90;;;;;;6121032;23;20610;-91
2024/01/26 12:16:10;;;;;;;5.57;1.27;;;8.70;99.90;;;;;;6096463;23;20017;-91
2024/01/26 12:18:36;;;;;;;6.18;1.30;;;8.60;99.90;;;;;;6096890;23;20517;-91
2024/01/26 12:21:02;;;;;;;11.93;2.17;;;8.60;99.90;;;;;;6096311;23;20014;-91
2024/01/26 12:23:28;;;;;;;6.50;1.33;;;8.60;99.90;;;;;;6122658;23;20360;-91
2024/01/26 12:25:53;;;;;;;8.82;1.58;;;8.50;99.90;;;;;;6120801;23;20021;-91
2024/01/26 12:28:20;;;;;;;10.27;1.45;;;8.50;99.90;;;;;;6120655;23;20014;-91
2024/01/26 12:30:48;;;;;;;9.13;1.33;;;8.50;99.90;;;;;;6097081;23;20048;-91
2024/01/26 12:33:14;;;;;;;14.13;2.35;;;8.50;99.90;;;;;;6097196;23;20016;-91
2024/01/26 12:35:42;;;;;;;6.20;1.88;;;8.50;99.90;;;;;;6120368;23;20100;-90